N70EU KRNO-KMRY
Flight info
| Callsign | N70EU |
|---|---|
| Flight time | 1h 10m |
| Altitude | 29000 |
| Route | SPRKS1 FMG NIVEE/N0313F280 SNS |
| Aircraft | B350/L-SBGRW/S |
Departure
| Time | 2026-05-08 03:21 |
|---|---|
| Airport | Reno Tahoe International Airport (KRNO) |
Arrival
| Time | 2026-05-08 04:31 |
|---|---|
| Airport | Monterey Regional Airport (KMRY) |
| Time | Latitude | Longitude | Altitude | Speed | Heading |
|---|---|---|---|---|---|
| 2026-05-08 02:35 | 39.50138 | -119.76480 | 4410 ft | 0 kts | 86° |
| 2026-05-08 03:14 | 39.50126 | -119.76458 | 4411 ft | 6 kts | 161° |
| 2026-05-08 03:14 | 39.50092 | -119.76487 | 4411 ft | 7 kts | 259° |
| 2026-05-08 03:14 | 39.50074 | -119.76551 | 4412 ft | 8 kts | 216° |
| 2026-05-08 03:15 | 39.50013 | -119.76572 | 4411 ft | 10 kts | 181° |
| 2026-05-08 03:15 | 39.50002 | -119.76572 | 4411 ft | 10 kts | 177° |
| 2026-05-08 03:15 | 39.49974 | -119.76571 | 4411 ft | 11 kts | 180° |
| 2026-05-08 03:15 | 39.49897 | -119.76572 | 4411 ft | 11 kts | 181° |
| 2026-05-08 03:16 | 39.49810 | -119.76569 | 4410 ft | 13 kts | 162° |
| 2026-05-08 03:16 | 39.49737 | -119.76483 | 4410 ft | 15 kts | 101° |
| 2026-05-08 03:16 | 39.49736 | -119.76331 | 4409 ft | 15 kts | 91° |
| 2026-05-08 03:16 | 39.49735 | -119.76221 | 4408 ft | 14 kts | 89° |
| 2026-05-08 03:17 | 39.49737 | -119.76077 | 4407 ft | 14 kts | 91° |
| 2026-05-08 03:17 | 39.49733 | -119.75942 | 4406 ft | 17 kts | 92° |
| 2026-05-08 03:17 | 39.49733 | -119.75809 | 4405 ft | 13 kts | 89° |
| 2026-05-08 03:17 | 39.49709 | -119.75736 | 4404 ft | 0 kts | 176° |
| 2026-05-08 03:19 | 39.49703 | -119.75736 | 4405 ft | 4 kts | 176° |
| 2026-05-08 03:20 | 39.49632 | -119.75741 | 4405 ft | 12 kts | 222° |
| 2026-05-08 03:20 | 39.49623 | -119.75774 | 4405 ft | 0 kts | 266° |
| 2026-05-08 03:20 | 39.49624 | -119.76184 | 4408 ft | 90 kts | 270° |
| 2026-05-08 03:21 | 39.49628 | -119.77221 | 4618 ft | 126 kts | 270° |
| 2026-05-08 03:21 | 39.49641 | -119.78348 | 5231 ft | 134 kts | 271° |
| 2026-05-08 03:21 | 39.49704 | -119.79637 | 5704 ft | 147 kts | 276° |
| 2026-05-08 03:21 | 39.50069 | -119.80845 | 6203 ft | 152 kts | 307° |
| 2026-05-08 03:22 | 39.51008 | -119.81582 | 6538 ft | 171 kts | 346° |
| 2026-05-08 03:22 | 39.52167 | -119.81230 | 6917 ft | 189 kts | 36° |
| 2026-05-08 03:22 | 39.52844 | -119.79753 | 7451 ft | 187 kts | 66° |
| 2026-05-08 03:22 | 39.53160 | -119.78272 | 8245 ft | 168 kts | 79° |
| 2026-05-08 03:23 | 39.53279 | -119.76710 | 8559 ft | 182 kts | 86° |
| 2026-05-08 03:23 | 39.53301 | -119.75050 | 8964 ft | 192 kts | 89° |
| 2026-05-08 03:23 | 39.53279 | -119.73261 | 9397 ft | 201 kts | 89° |
| 2026-05-08 03:23 | 39.53247 | -119.71439 | 9905 ft | 206 kts | 89° |
| 2026-05-08 03:24 | 39.53211 | -119.69590 | 10485 ft | 208 kts | 89° |
| 2026-05-08 03:24 | 39.53081 | -119.67763 | 11066 ft | 208 kts | 108° |
| 2026-05-08 03:24 | 39.52248 | -119.66278 | 11616 ft | 206 kts | 146° |
| 2026-05-08 03:24 | 39.50925 | -119.65718 | 12134 ft | 201 kts | 181° |
| 2026-05-08 03:25 | 39.49538 | -119.65736 | 12657 ft | 201 kts | 185° |
| 2026-05-08 03:25 | 39.48133 | -119.65778 | 13188 ft | 201 kts | 185° |
| 2026-05-08 03:25 | 39.46749 | -119.65823 | 13691 ft | 201 kts | 185° |
| 2026-05-08 03:25 | 39.45345 | -119.65870 | 14179 ft | 201 kts | 185° |
| 2026-05-08 03:26 | 39.43948 | -119.65917 | 14645 ft | 202 kts | 185° |
| 2026-05-08 03:26 | 39.42539 | -119.65964 | 15103 ft | 205 kts | 185° |
| 2026-05-08 03:26 | 39.41112 | -119.66013 | 15582 ft | 206 kts | 185° |
| 2026-05-08 03:26 | 39.39688 | -119.66061 | 16059 ft | 206 kts | 185° |
| 2026-05-08 03:27 | 39.38266 | -119.66110 | 16531 ft | 206 kts | 185° |
| 2026-05-08 03:27 | 39.36839 | -119.66158 | 16991 ft | 206 kts | 185° |
| 2026-05-08 03:27 | 39.35393 | -119.66207 | 17438 ft | 207 kts | 185° |
| 2026-05-08 03:27 | 39.33956 | -119.66256 | 17873 ft | 208 kts | 185° |
| 2026-05-08 03:28 | 39.32520 | -119.66304 | 18318 ft | 209 kts | 185° |
| 2026-05-08 03:28 | 39.31063 | -119.66354 | 18802 ft | 209 kts | 185° |
| 2026-05-08 03:28 | 39.29610 | -119.66402 | 19287 ft | 208 kts | 185° |
| 2026-05-08 03:28 | 39.28155 | -119.66452 | 19762 ft | 207 kts | 185° |
| 2026-05-08 03:29 | 39.26729 | -119.66500 | 20206 ft | 207 kts | 185° |
| 2026-05-08 03:29 | 39.25285 | -119.66549 | 20676 ft | 209 kts | 184° |
| 2026-05-08 03:29 | 39.23833 | -119.66599 | 21177 ft | 209 kts | 184° |
| 2026-05-08 03:29 | 39.22380 | -119.66647 | 21678 ft | 208 kts | 184° |
| 2026-05-08 03:30 | 39.19489 | -119.66746 | 22617 ft | 208 kts | 184° |
| 2026-05-08 03:30 | 39.16595 | -119.66843 | 23551 ft | 209 kts | 184° |
| 2026-05-08 03:31 | 39.13680 | -119.66942 | 24474 ft | 209 kts | 184° |
| 2026-05-08 03:31 | 39.10786 | -119.67039 | 25313 ft | 210 kts | 184° |
| 2026-05-08 03:32 | 39.09314 | -119.67089 | 25724 ft | 210 kts | 184° |
| 2026-05-08 03:32 | 39.07861 | -119.67138 | 26118 ft | 210 kts | 183° |
| 2026-05-08 03:32 | 39.06386 | -119.67188 | 26513 ft | 211 kts | 183° |
| 2026-05-08 03:32 | 39.04933 | -119.67236 | 26895 ft | 210 kts | 183° |
| 2026-05-08 03:33 | 39.03455 | -119.67287 | 27260 ft | 211 kts | 183° |
| 2026-05-08 03:33 | 39.02000 | -119.67335 | 27601 ft | 212 kts | 183° |
| 2026-05-08 03:33 | 39.00520 | -119.67384 | 27886 ft | 216 kts | 183° |
| 2026-05-08 03:33 | 38.98963 | -119.67436 | 28008 ft | 228 kts | 183° |
| 2026-05-08 03:34 | 38.97345 | -119.67490 | 28122 ft | 240 kts | 183° |
| 2026-05-08 03:34 | 38.95622 | -119.67549 | 28143 ft | 255 kts | 183° |
| 2026-05-08 03:34 | 38.93803 | -119.67610 | 28148 ft | 269 kts | 183° |
| 2026-05-08 03:34 | 38.91882 | -119.67675 | 28149 ft | 282 kts | 183° |
| 2026-05-08 03:35 | 38.89867 | -119.67742 | 28152 ft | 294 kts | 182° |
| 2026-05-08 03:35 | 38.87766 | -119.67812 | 28148 ft | 305 kts | 182° |
| 2026-05-08 03:35 | 38.83738 | -119.67947 | 28152 ft | 323 kts | 182° |
| 2026-05-08 03:36 | 38.81438 | -119.68024 | 28164 ft | 331 kts | 182° |
| 2026-05-08 03:36 | 38.76751 | -119.68181 | 28166 ft | 345 kts | 182° |
| 2026-05-08 03:37 | 38.71894 | -119.68343 | 28175 ft | 354 kts | 182° |
| 2026-05-08 03:37 | 38.66943 | -119.68508 | 28163 ft | 350 kts | 182° |
| 2026-05-08 03:38 | 38.62127 | -119.68669 | 28179 ft | 343 kts | 182° |
| 2026-05-08 03:38 | 38.57411 | -119.68825 | 28191 ft | 338 kts | 182° |
| 2026-05-08 03:39 | 38.52713 | -119.68980 | 28199 ft | 335 kts | 182° |
| 2026-05-08 03:39 | 38.48068 | -119.69134 | 28226 ft | 332 kts | 182° |
| 2026-05-08 03:40 | 38.43473 | -119.69287 | 28233 ft | 330 kts | 182° |
| 2026-05-08 03:40 | 38.38857 | -119.69440 | 28241 ft | 329 kts | 182° |
| 2026-05-08 03:41 | 38.34290 | -119.69590 | 28245 ft | 328 kts | 182° |
| 2026-05-08 03:41 | 38.29723 | -119.69740 | 28253 ft | 328 kts | 182° |
| 2026-05-08 03:42 | 38.25155 | -119.69891 | 28261 ft | 327 kts | 182° |
| 2026-05-08 03:42 | 38.20617 | -119.70040 | 28255 ft | 327 kts | 182° |
| 2026-05-08 03:43 | 38.16060 | -119.70190 | 28247 ft | 327 kts | 182° |
| 2026-05-08 03:43 | 38.11496 | -119.70340 | 28236 ft | 327 kts | 182° |
| 2026-05-08 03:44 | 38.06935 | -119.70489 | 28230 ft | 327 kts | 182° |
| 2026-05-08 03:44 | 38.02364 | -119.70638 | 28219 ft | 327 kts | 182° |
| 2026-05-08 03:45 | 37.97784 | -119.70789 | 28209 ft | 327 kts | 182° |
| 2026-05-08 03:45 | 37.93226 | -119.70937 | 28207 ft | 327 kts | 182° |
| 2026-05-08 03:46 | 37.88645 | -119.71086 | 28203 ft | 327 kts | 182° |
| 2026-05-08 03:46 | 37.84087 | -119.71235 | 28195 ft | 327 kts | 182° |
| 2026-05-08 03:47 | 37.79570 | -119.71381 | 28307 ft | 323 kts | 182° |
| 2026-05-08 03:47 | 37.75060 | -119.71528 | 28315 ft | 324 kts | 182° |
| 2026-05-08 03:48 | 37.70520 | -119.71675 | 28305 ft | 327 kts | 182° |
| 2026-05-08 03:48 | 37.65936 | -119.71824 | 28297 ft | 330 kts | 182° |
| 2026-05-08 03:49 | 37.61306 | -119.71973 | 28286 ft | 333 kts | 182° |
| 2026-05-08 03:49 | 37.56661 | -119.72124 | 28278 ft | 334 kts | 182° |
| 2026-05-08 03:50 | 37.51988 | -119.72275 | 28265 ft | 336 kts | 182° |
| 2026-05-08 03:50 | 37.47286 | -119.72426 | 28253 ft | 337 kts | 182° |
| 2026-05-08 03:51 | 37.42588 | -119.72578 | 28227 ft | 338 kts | 182° |
| 2026-05-08 03:51 | 37.37881 | -119.72729 | 28202 ft | 339 kts | 182° |
| 2026-05-08 03:52 | 37.33144 | -119.72881 | 28177 ft | 339 kts | 182° |
| 2026-05-08 03:52 | 37.28413 | -119.73032 | 28146 ft | 340 kts | 182° |
| 2026-05-08 03:53 | 37.23640 | -119.73186 | 28103 ft | 341 kts | 181° |
| 2026-05-08 03:53 | 37.18922 | -119.73336 | 28084 ft | 341 kts | 181° |
| 2026-05-08 03:54 | 37.14196 | -119.73487 | 28173 ft | 338 kts | 182° |
| 2026-05-08 03:54 | 37.09481 | -119.73638 | 28158 ft | 339 kts | 181° |
| 2026-05-08 03:54 | 37.07135 | -119.73853 | 28117 ft | 339 kts | 193° |
| 2026-05-08 03:55 | 37.04977 | -119.75039 | 28138 ft | 335 kts | 216° |
| 2026-05-08 03:55 | 37.03366 | -119.77068 | 28130 ft | 333 kts | 237° |
| 2026-05-08 03:55 | 37.02456 | -119.79723 | 28132 ft | 330 kts | 256° |
| 2026-05-08 03:56 | 37.01377 | -119.85293 | 28120 ft | 330 kts | 257° |
| 2026-05-08 03:56 | 37.00301 | -119.90889 | 28094 ft | 332 kts | 257° |
| 2026-05-08 03:56 | 36.99763 | -119.93690 | 27710 ft | 331 kts | 257° |
| 2026-05-08 03:57 | 36.99229 | -119.96464 | 27321 ft | 327 kts | 258° |
| 2026-05-08 03:57 | 36.98699 | -119.99212 | 26926 ft | 324 kts | 257° |
| 2026-05-08 03:57 | 36.98175 | -120.01924 | 26534 ft | 321 kts | 257° |
| 2026-05-08 03:57 | 36.97657 | -120.04603 | 26143 ft | 318 kts | 257° |
| 2026-05-08 03:58 | 36.97137 | -120.07288 | 25750 ft | 316 kts | 257° |
| 2026-05-08 03:58 | 36.96617 | -120.09969 | 25355 ft | 314 kts | 257° |
| 2026-05-08 03:58 | 36.96107 | -120.12597 | 24968 ft | 312 kts | 257° |
| 2026-05-08 03:58 | 36.95598 | -120.15218 | 24580 ft | 310 kts | 257° |
| 2026-05-08 03:59 | 36.95089 | -120.17831 | 24188 ft | 308 kts | 257° |
| 2026-05-08 03:59 | 36.94588 | -120.20403 | 23803 ft | 307 kts | 257° |
| 2026-05-08 03:59 | 36.94079 | -120.23008 | 23418 ft | 307 kts | 257° |
| 2026-05-08 03:59 | 36.93571 | -120.25607 | 23037 ft | 307 kts | 257° |
| 2026-05-08 04:00 | 36.93066 | -120.28185 | 22671 ft | 307 kts | 257° |
| 2026-05-08 04:00 | 36.92561 | -120.30764 | 22306 ft | 307 kts | 257° |
| 2026-05-08 04:00 | 36.92054 | -120.33352 | 21949 ft | 307 kts | 257° |
| 2026-05-08 04:00 | 36.91542 | -120.35958 | 21583 ft | 307 kts | 257° |
| 2026-05-08 04:01 | 36.91036 | -120.38532 | 21217 ft | 307 kts | 257° |
| 2026-05-08 04:01 | 36.90526 | -120.41121 | 20853 ft | 306 kts | 257° |
| 2026-05-08 04:01 | 36.90020 | -120.43688 | 20501 ft | 308 kts | 257° |
| 2026-05-08 04:01 | 36.89507 | -120.46288 | 20144 ft | 310 kts | 257° |
| 2026-05-08 04:02 | 36.88991 | -120.48904 | 19781 ft | 311 kts | 257° |
| 2026-05-08 04:02 | 36.88472 | -120.51529 | 19424 ft | 313 kts | 257° |
| 2026-05-08 04:02 | 36.87953 | -120.54146 | 19058 ft | 308 kts | 257° |
| 2026-05-08 04:02 | 36.87450 | -120.56686 | 18657 ft | 293 kts | 257° |
| 2026-05-08 04:03 | 36.86969 | -120.59107 | 18269 ft | 281 kts | 257° |
| 2026-05-08 04:03 | 36.86057 | -120.63693 | 17511 ft | 267 kts | 258° |
| 2026-05-08 04:03 | 36.85613 | -120.65925 | 17118 ft | 261 kts | 257° |
| 2026-05-08 04:04 | 36.85179 | -120.68099 | 16738 ft | 257 kts | 257° |
| 2026-05-08 04:04 | 36.84752 | -120.70242 | 16366 ft | 253 kts | 257° |
| 2026-05-08 04:04 | 36.84334 | -120.72334 | 16004 ft | 249 kts | 257° |
| 2026-05-08 04:04 | 36.83914 | -120.74435 | 15631 ft | 246 kts | 257° |
| 2026-05-08 04:05 | 36.83505 | -120.76479 | 15264 ft | 243 kts | 257° |
| 2026-05-08 04:05 | 36.83096 | -120.78522 | 14878 ft | 241 kts | 256° |
| 2026-05-08 04:05 | 36.82695 | -120.80520 | 14503 ft | 238 kts | 256° |
| 2026-05-08 04:05 | 36.82294 | -120.82513 | 14134 ft | 236 kts | 256° |
| 2026-05-08 04:06 | 36.81893 | -120.84511 | 13747 ft | 235 kts | 256° |
| 2026-05-08 04:06 | 36.81500 | -120.86465 | 13375 ft | 233 kts | 256° |
| 2026-05-08 04:06 | 36.81103 | -120.88437 | 12998 ft | 232 kts | 256° |
| 2026-05-08 04:06 | 36.80711 | -120.90382 | 12637 ft | 231 kts | 257° |
| 2026-05-08 04:07 | 36.80322 | -120.92313 | 12278 ft | 230 kts | 257° |
| 2026-05-08 04:07 | 36.79930 | -120.94249 | 11925 ft | 229 kts | 257° |
| 2026-05-08 04:07 | 36.79545 | -120.96156 | 11577 ft | 229 kts | 257° |
| 2026-05-08 04:07 | 36.79153 | -120.98093 | 11215 ft | 228 kts | 257° |
| 2026-05-08 04:08 | 36.78770 | -120.99988 | 10866 ft | 228 kts | 257° |
| 2026-05-08 04:08 | 36.78379 | -121.01919 | 10506 ft | 227 kts | 257° |
| 2026-05-08 04:08 | 36.77994 | -121.03816 | 10148 ft | 226 kts | 257° |
| 2026-05-08 04:08 | 36.77608 | -121.05719 | 9789 ft | 226 kts | 257° |
| 2026-05-08 04:09 | 36.77224 | -121.07606 | 9441 ft | 225 kts | 257° |
| 2026-05-08 04:09 | 36.76840 | -121.09495 | 9084 ft | 225 kts | 257° |
| 2026-05-08 04:09 | 36.76456 | -121.11384 | 8714 ft | 224 kts | 257° |
| 2026-05-08 04:09 | 36.76074 | -121.13258 | 8365 ft | 224 kts | 257° |
| 2026-05-08 04:10 | 36.75692 | -121.15134 | 8007 ft | 224 kts | 257° |
| 2026-05-08 04:10 | 36.75310 | -121.17003 | 7649 ft | 223 kts | 257° |
| 2026-05-08 04:10 | 36.74928 | -121.18875 | 7290 ft | 223 kts | 257° |
| 2026-05-08 04:10 | 36.74544 | -121.20751 | 6927 ft | 223 kts | 257° |
| 2026-05-08 04:11 | 36.74165 | -121.22606 | 6571 ft | 222 kts | 257° |
| 2026-05-08 04:11 | 36.73783 | -121.24473 | 6213 ft | 222 kts | 257° |
| 2026-05-08 04:11 | 36.73403 | -121.26328 | 5848 ft | 222 kts | 257° |
| 2026-05-08 04:11 | 36.73022 | -121.28188 | 5511 ft | 220 kts | 257° |
| 2026-05-08 04:12 | 36.72651 | -121.29997 | 5428 ft | 206 kts | 257° |
| 2026-05-08 04:12 | 36.72300 | -121.31704 | 5432 ft | 205 kts | 257° |
| 2026-05-08 04:12 | 36.71945 | -121.33434 | 5442 ft | 204 kts | 257° |
| 2026-05-08 04:12 | 36.71594 | -121.35139 | 5458 ft | 205 kts | 257° |
| 2026-05-08 04:13 | 36.71236 | -121.36878 | 5437 ft | 207 kts | 257° |
| 2026-05-08 04:13 | 36.70876 | -121.38624 | 5431 ft | 206 kts | 257° |
| 2026-05-08 04:13 | 36.70522 | -121.40344 | 5440 ft | 205 kts | 258° |
| 2026-05-08 04:13 | 36.70166 | -121.42067 | 5446 ft | 206 kts | 257° |
| 2026-05-08 04:14 | 36.69808 | -121.43797 | 5447 ft | 206 kts | 258° |
| 2026-05-08 04:14 | 36.69450 | -121.45534 | 5443 ft | 206 kts | 257° |
| 2026-05-08 04:14 | 36.69089 | -121.47277 | 5448 ft | 207 kts | 257° |
| 2026-05-08 04:14 | 36.68729 | -121.49015 | 5463 ft | 208 kts | 258° |
| 2026-05-08 04:15 | 36.68366 | -121.50765 | 5440 ft | 209 kts | 257° |
| 2026-05-08 04:15 | 36.68002 | -121.52524 | 5436 ft | 209 kts | 258° |
| 2026-05-08 04:15 | 36.67637 | -121.54279 | 5432 ft | 209 kts | 258° |
| 2026-05-08 04:15 | 36.67276 | -121.56018 | 5438 ft | 208 kts | 257° |
| 2026-05-08 04:16 | 36.66910 | -121.57775 | 5436 ft | 208 kts | 257° |
| 2026-05-08 04:16 | 36.66545 | -121.59531 | 5437 ft | 209 kts | 257° |
| 2026-05-08 04:16 | 36.66331 | -121.61301 | 5438 ft | 207 kts | 269° |
| 2026-05-08 04:16 | 36.66256 | -121.63113 | 5439 ft | 207 kts | 269° |
| 2026-05-08 04:17 | 36.66179 | -121.64885 | 5439 ft | 206 kts | 268° |
| 2026-05-08 04:17 | 36.66099 | -121.66660 | 5441 ft | 203 kts | 268° |
| 2026-05-08 04:17 | 36.66019 | -121.68446 | 5185 ft | 207 kts | 269° |
| 2026-05-08 04:17 | 36.65940 | -121.70203 | 4809 ft | 203 kts | 268° |
| 2026-05-08 04:18 | 36.65861 | -121.71946 | 4433 ft | 201 kts | 268° |
| 2026-05-08 04:18 | 36.65784 | -121.73658 | 4056 ft | 198 kts | 268° |
| 2026-05-08 04:18 | 36.65705 | -121.75382 | 3675 ft | 196 kts | 269° |
| 2026-05-08 04:18 | 36.65628 | -121.77060 | 3556 ft | 192 kts | 269° |
| 2026-05-08 04:19 | 36.65551 | -121.78717 | 3552 ft | 193 kts | 269° |
| 2026-05-08 04:19 | 36.65473 | -121.80413 | 3554 ft | 197 kts | 269° |
| 2026-05-08 04:19 | 36.65364 | -121.82121 | 3553 ft | 201 kts | 266° |
| 2026-05-08 04:19 | 36.65232 | -121.83865 | 3553 ft | 201 kts | 266° |
| 2026-05-08 04:20 | 36.65100 | -121.85575 | 3551 ft | 194 kts | 266° |
| 2026-05-08 04:20 | 36.64970 | -121.87236 | 3549 ft | 188 kts | 266° |
| 2026-05-08 04:20 | 36.64850 | -121.88836 | 3549 ft | 183 kts | 266° |
| 2026-05-08 04:20 | 36.64735 | -121.90423 | 3566 ft | 190 kts | 267° |
| 2026-05-08 04:21 | 36.64614 | -121.92088 | 3571 ft | 195 kts | 267° |
| 2026-05-08 04:21 | 36.64487 | -121.93789 | 3559 ft | 200 kts | 266° |
| 2026-05-08 04:21 | 36.64355 | -121.95533 | 3557 ft | 203 kts | 266° |
| 2026-05-08 04:21 | 36.64216 | -121.97308 | 3559 ft | 206 kts | 266° |
| 2026-05-08 04:22 | 36.64085 | -121.99088 | 3556 ft | 208 kts | 266° |
| 2026-05-08 04:22 | 36.64004 | -122.00887 | 3554 ft | 209 kts | 268° |
| 2026-05-08 04:22 | 36.63878 | -122.02692 | 3558 ft | 210 kts | 267° |
| 2026-05-08 04:22 | 36.63876 | -122.04545 | 3264 ft | 217 kts | 284° |
| 2026-05-08 04:23 | 36.64308 | -122.06284 | 2890 ft | 205 kts | 290° |
| 2026-05-08 04:23 | 36.64731 | -122.07925 | 2585 ft | 192 kts | 290° |
| 2026-05-08 04:23 | 36.65105 | -122.09413 | 2536 ft | 170 kts | 290° |
| 2026-05-08 04:23 | 36.65443 | -122.10785 | 2537 ft | 162 kts | 290° |
| 2026-05-08 04:24 | 36.65894 | -122.12108 | 2558 ft | 168 kts | 312° |
| 2026-05-08 04:24 | 36.66920 | -122.12787 | 2567 ft | 172 kts | 354° |
| 2026-05-08 04:24 | 36.68086 | -122.12444 | 2569 ft | 176 kts | 20° |
| 2026-05-08 04:24 | 36.69284 | -122.12294 | 2561 ft | 176 kts | 354° |
| 2026-05-08 04:25 | 36.70467 | -122.11987 | 2559 ft | 179 kts | 31° |
| 2026-05-08 04:25 | 36.71201 | -122.10748 | 2556 ft | 181 kts | 72° |
| 2026-05-08 04:25 | 36.71075 | -122.09219 | 2554 ft | 181 kts | 116° |
| 2026-05-08 04:25 | 36.70335 | -122.07965 | 2557 ft | 178 kts | 128° |
| 2026-05-08 04:26 | 36.69561 | -122.06786 | 2552 ft | 176 kts | 128° |
| 2026-05-08 04:26 | 36.68784 | -122.05603 | 2552 ft | 173 kts | 128° |
| 2026-05-08 04:26 | 36.68015 | -122.04434 | 2555 ft | 173 kts | 128° |
| 2026-05-08 04:26 | 36.67247 | -122.03268 | 2561 ft | 176 kts | 128° |
| 2026-05-08 04:27 | 36.66468 | -122.02082 | 2559 ft | 178 kts | 127° |
| 2026-05-08 04:27 | 36.65675 | -122.00879 | 2560 ft | 180 kts | 128° |
| 2026-05-08 04:27 | 36.64878 | -121.99666 | 2561 ft | 182 kts | 128° |
| 2026-05-08 04:27 | 36.64067 | -121.98431 | 2548 ft | 185 kts | 127° |
| 2026-05-08 04:28 | 36.63253 | -121.97250 | 2243 ft | 174 kts | 129° |
| 2026-05-08 04:28 | 36.62632 | -121.96027 | 2016 ft | 164 kts | 110° |
| 2026-05-08 04:28 | 36.62205 | -121.94774 | 1780 ft | 154 kts | 110° |
| 2026-05-08 04:28 | 36.61811 | -121.93606 | 1554 ft | 136 kts | 111° |
| 2026-05-08 04:29 | 36.61464 | -121.92582 | 1362 ft | 121 kts | 111° |
| 2026-05-08 04:29 | 36.61143 | -121.91634 | 1201 ft | 114 kts | 111° |
| 2026-05-08 04:29 | 36.60825 | -121.90756 | 1051 ft | 113 kts | 113° |
| 2026-05-08 04:29 | 36.60513 | -121.89849 | 836 ft | 115 kts | 112° |
| 2026-05-08 04:30 | 36.60225 | -121.88916 | 568 ft | 113 kts | 114° |
| 2026-05-08 04:30 | 36.59923 | -121.88023 | 434 ft | 113 kts | 116° |
| 2026-05-08 04:30 | 36.59613 | -121.87128 | 430 ft | 111 kts | 115° |
| 2026-05-08 04:30 | 36.59318 | -121.86264 | 269 ft | 107 kts | 112° |
| 2026-05-08 04:31 | 36.59039 | -121.85406 | 176 ft | 103 kts | 115° |
| 2026-05-08 04:31 | 36.58798 | -121.84716 | 185 ft | 60 kts | 113° |
| 2026-05-08 04:31 | 36.58661 | -121.84332 | 209 ft | 44 kts | 108° |
| 2026-05-08 04:31 | 36.58587 | -121.84128 | 222 ft | 12 kts | 143° |
| 2026-05-08 04:32 | 36.58517 | -121.84138 | 223 ft | 11 kts | 239° |
| 2026-05-08 04:32 | 36.58513 | -121.84151 | 223 ft | 0 kts | 263° |
| 2026-05-08 04:34 | 36.58513 | -121.84160 | 223 ft | 5 kts | 268° |
| 2026-05-08 04:34 | 36.58538 | -121.84254 | 217 ft | 12 kts | 294° |
| 2026-05-08 04:34 | 36.58577 | -121.84364 | 210 ft | 14 kts | 292° |
| 2026-05-08 04:35 | 36.58617 | -121.84482 | 202 ft | 16 kts | 293° |
| 2026-05-08 04:35 | 36.58667 | -121.84609 | 194 ft | 19 kts | 302° |
| 2026-05-08 04:35 | 36.58722 | -121.84763 | 185 ft | 20 kts | 290° |
| 2026-05-08 04:35 | 36.58776 | -121.84918 | 177 ft | 15 kts | 294° |
| 2026-05-08 04:36 | 36.58833 | -121.85084 | 170 ft | 22 kts | 292° |
| 2026-05-08 04:36 | 36.58856 | -121.85204 | 166 ft | 8 kts | 207° |
| 2026-05-08 04:36 | 36.58815 | -121.85182 | 168 ft | 0 kts | 98° |